Time;durP1;ratioP1;P1;durP2;ratioP2;P2;SDS_P1;SDS_P2;PMS_P1;PMS_P2;Temp;Humidity;BMP_temperature;BMP_pressure;BME280_temperature;BME280_humidity;BME280_pressure;Samples;Min_cycle;Max_cycle;Signal;HPM_P1;HPM_P2
2022/03/04 00:00:57;;;;;;;;;;;10.90;99.90;;;;;;4993827;28;20056;-62
2022/03/04 00:03:22;;;;;;;;;;;10.90;99.90;;;;;;4993601;28;19921;-63
2022/03/04 00:05:48;;;;;;;;;;;10.90;99.90;;;;;;4993450;28;20008;-61
2022/03/04 00:08:13;;;;;;;;;;;10.80;99.90;;;;;;4993860;28;20387;-64
2022/03/04 00:10:39;;;;;;;;;;;10.90;99.90;;;;;;4993667;28;19913;-61
2022/03/04 00:13:05;;;;;;;;;;;10.80;99.90;;;;;;4993739;28;19914;-63
2022/03/04 00:15:31;;;;;;;;;;;10.90;99.90;;;;;;4993276;28;19953;-63
2022/03/04 00:17:56;;;;;;;;;;;10.80;99.90;;;;;;4993704;28;19925;-63
2022/03/04 00:20:22;;;;;;;;;;;10.80;99.90;;;;;;4993280;28;19910;-63
2022/03/04 00:22:48;;;;;;;;;;;10.70;99.90;;;;;;4993496;28;19909;-62
2022/03/04 00:25:13;;;;;;;;;;;10.70;99.90;;;;;;4993942;28;19914;-63
2022/03/04 00:27:39;;;;;;;;;;;10.60;99.90;;;;;;4992939;28;19917;-62
2022/03/04 00:30:05;;;;;;;;;;;10.60;99.90;;;;;;4993252;28;19972;-63
2022/03/04 00:32:31;;;;;;;;;;;10.50;99.90;;;;;;4993562;28;19921;-61
2022/03/04 00:34:56;;;;;;;;;;;10.40;99.90;;;;;;4993583;28;19913;-62
2022/03/04 00:37:22;;;;;;;;;;;10.30;99.90;;;;;;4993104;28;20395;-62
2022/03/04 00:39:47;;;;;;;;;;;10.20;99.90;;;;;;4993142;28;20422;-60
2022/03/04 00:42:13;;;;;;;;;;;10.10;99.90;;;;;;4992900;28;19918;-61
2022/03/04 00:44:38;;;;;;;;;;;10.10;99.90;;;;;;4992814;28;19914;-61
2022/03/04 00:47:04;;;;;;;;;;;10.00;99.90;;;;;;4994010;28;20008;-61
2022/03/04 00:49:30;;;;;;;;;;;10.00;99.90;;;;;;4992345;28;19913;-62
2022/03/04 00:51:56;;;;;;;;;;;10.00;99.90;;;;;;5007507;28;19918;-63
2022/03/04 00:54:22;;;;;;;;;;;9.90;99.90;;;;;;4992773;28;19921;-62
2022/03/04 00:56:48;;;;;;;;;;;9.90;99.90;;;;;;4992528;28;19922;-61
2022/03/04 00:59:14;;;;;;;;;;;9.90;99.90;;;;;;4993333;28;20048;-63
2022/03/04 01:01:39;;;;;;;;;;;9.80;99.90;;;;;;4992901;28;19934;-63
2022/03/04 01:04:05;;;;;;;;;;;9.80;99.90;;;;;;4992162;28;19918;-62
2022/03/04 01:06:30;;;;;;;;;;;9.80;99.90;;;;;;4992137;28;19921;-62
2022/03/04 01:08:56;;;;;;;;;;;9.80;99.90;;;;;;4992745;28;19922;-62
2022/03/04 01:11:21;;;;;;;;;;;9.70;99.90;;;;;;4992569;28;19985;-63
2022/03/04 01:13:47;;;;;;;;;;;9.80;99.90;;;;;;4992999;28;19914;-62
2022/03/04 01:16:12;;;;;;;;;;;9.80;99.90;;;;;;4992408;28;20567;-61
2022/03/04 01:18:38;;;;;;;;;;;9.70;99.90;;;;;;4991879;28;19929;-61
2022/03/04 01:21:03;;;;;;;;;;;9.70;99.90;;;;;;4991860;28;19918;-62
2022/03/04 01:23:29;;;;;;;;;;;9.70;99.90;;;;;;4992454;28;19916;-62
2022/03/04 01:25:56;;;;;;;;;;;9.70;99.90;;;;;;4992310;28;20393;-63
2022/03/04 01:28:22;;;;;;;;;;;9.70;99.90;;;;;;4992298;28;19914;-63
2022/03/04 01:30:48;;;;;;;;;;;9.70;99.90;;;;;;4991760;28;19967;-60
2022/03/04 01:33:13;;;;;;;;;;;9.70;99.90;;;;;;4992162;28;19964;-62
2022/03/04 01:35:39;;;;;;;;;;;9.70;99.90;;;;;;4991578;28;20017;-62
2022/03/04 01:38:05;;;;;;;;;;;9.70;99.90;;;;;;4992611;28;19941;-61
2022/03/04 01:40:31;;;;;;;;;;;9.70;99.90;;;;;;4991765;28;20371;-63
2022/03/04 01:42:56;;;;;;;;;;;9.70;99.90;;;;;;4991939;28;19917;-61
2022/03/04 01:45:22;;;;;;;;;;;9.70;99.90;;;;;;4991639;28;19968;-62
2022/03/04 01:47:48;;;;;;;;;;;9.70;99.90;;;;;;5006953;28;19925;-62
2022/03/04 01:50:13;;;;;;;;;;;9.70;99.90;;;;;;4991763;28;19917;-63
2022/03/04 01:52:39;;;;;;;;;;;9.80;99.90;;;;;;4991741;28;19909;-62
2022/03/04 01:55:06;;;;;;;;;;;9.80;99.90;;;;;;4991159;28;19914;-63
2022/03/04 01:57:31;;;;;;;;;;;9.90;99.90;;;;;;4991271;28;19933;-61
2022/03/04 01:59:57;;;;;;;;;;;9.90;99.90;;;;;;4991315;28;19913;-62
2022/03/04 02:02:22;;;;;;;;;;;9.90;99.90;;;;;;4990926;28;19909;-63
2022/03/04 02:04:51;;;;;;;;;;;9.90;99.90;;;;;;4991129;28;19910;-62
2022/03/04 02:07:17;;;;;;;;;;;10.00;99.90;;;;;;4990878;28;20009;-61
2022/03/04 02:09:42;;;;;;;;;;;10.00;99.90;;;;;;4990955;28;20020;-63
2022/03/04 02:12:08;;;;;;;;;;;10.10;99.90;;;;;;4990855;28;19913;-61
2022/03/04 02:14:34;;;;;;;;;;;10.10;99.90;;;;;;4991487;28;20032;-62
2022/03/04 02:17:00;;;;;;;;;;;10.10;99.90;;;;;;4991704;28;20053;-63
2022/03/04 02:19:25;;;;;;;;;;;10.10;99.90;;;;;;4991199;28;20338;-63
2022/03/04 02:21:54;;;;;;;;;;;10.10;99.90;;;;;;4991102;28;20755;-62
2022/03/04 02:24:22;;;;;;;;;;;10.10;99.90;;;;;;5006567;28;19913;-62
2022/03/04 02:26:48;;;;;;;;;;;10.10;99.90;;;;;;4991353;28;19921;-63
2022/03/04 02:29:14;;;;;;;;;;;10.10;99.90;;;;;;4991613;28;20375;-63
2022/03/04 02:31:39;;;;;;;;;;;10.10;99.90;;;;;;4991001;28;19926;-62
2022/03/04 02:34:05;;;;;;;;;;;10.10;99.90;;;;;;4990995;28;19921;-63
2022/03/04 02:36:31;;;;;;;;;;;10.10;99.90;;;;;;4990100;28;19914;-64
2022/03/04 02:38:56;;;;;;;;;;;10.10;99.90;;;;;;4990026;28;19936;-63
2022/03/04 02:41:21;;;;;;;;;;;10.10;99.90;;;;;;4991748;28;20434;-63
2022/03/04 02:43:47;;;;;;;;;;;10.10;99.90;;;;;;4991490;28;19909;-62
2022/03/04 02:46:15;;;;;;;;;;;10.10;99.90;;;;;;4990363;28;20437;-63
2022/03/04 02:48:41;;;;;;;;;;;10.10;99.90;;;;;;4991123;28;19913;-63
2022/03/04 02:51:07;;;;;;;;;;;10.10;99.90;;;;;;4989671;28;20453;-62
2022/03/04 02:53:32;;;;;;;;;;;10.10;99.90;;;;;;4991116;28;19914;-63
2022/03/04 02:55:58;;;;;;;;;;;10.10;99.90;;;;;;4991543;28;19910;-62
2022/03/04 02:58:24;;;;;;;;;;;10.20;99.90;;;;;;4990958;28;19968;-62
2022/03/04 03:00:49;;;;;;;;;;;10.20;99.90;;;;;;4990298;28;19914;-62
2022/03/04 03:03:15;;;;;;;;;;;10.10;99.90;;;;;;4989837;28;19921;-63
2022/03/04 03:05:40;;;;;;;;;;;10.20;99.90;;;;;;4991430;28;19938;-62
2022/03/04 03:08:06;;;;;;;;;;;10.10;99.90;;;;;;4991621;28;19914;-60
2022/03/04 03:10:32;;;;;;;;;;;10.10;99.90;;;;;;4990639;28;19949;-62
2022/03/04 03:12:58;;;;;;;;;;;10.10;99.90;;;;;;4990767;28;19914;-61
2022/03/04 03:15:23;;;;;;;;;;;10.10;99.90;;;;;;4990421;28;19952;-63
2022/03/04 03:17:49;;;;;;;;;;;10.10;99.90;;;;;;4991013;28;19922;-61
2022/03/04 03:20:15;;;;;;;;;;;10.10;99.90;;;;;;4991222;28;20282;-62
2022/03/04 03:22:40;;;;;;;;;;;10.10;99.90;;;;;;4990899;28;20286;-61
2022/03/04 03:25:06;;;;;;;;;;;10.10;99.90;;;;;;4990620;28;20288;-63
2022/03/04 03:27:32;;;;;;;;;;;10.10;99.90;;;;;;4990578;28;20370;-62
2022/03/04 03:29:57;;;;;;;;;;;10.10;99.90;;;;;;4989859;28;19921;-63
2022/03/04 03:32:23;;;;;;;;;;;10.10;99.90;;;;;;4991212;28;19921;-61
2022/03/04 03:34:48;;;;;;;;;;;10.00;99.90;;;;;;4991398;28;19917;-62
2022/03/04 03:37:14;;;;;;;;;;;10.10;99.90;;;;;;4990486;28;19933;-62
2022/03/04 03:39:39;;;;;;;;;;;10.10;99.90;;;;;;4990533;28;20338;-61
2022/03/04 03:42:05;;;;;;;;;;;10.10;99.90;;;;;;4991231;28;20379;-63
2022/03/04 03:44:30;;;;;;;;;;;10.10;99.90;;;;;;4989702;28;19914;-63
2022/03/04 03:46:56;;;;;;;;;;;10.00;99.90;;;;;;4991095;28;19916;-63
2022/03/04 03:49:22;;;;;;;;;;;10.10;99.90;;;;;;4993583;28;20009;-63
2022/03/04 03:51:48;;;;;;;;;;;10.00;99.90;;;;;;4994341;28;19914;-61
2022/03/04 03:54:14;;;;;;;;;;;10.00;99.90;;;;;;4993835;28;19956;-62
2022/03/04 03:56:39;;;;;;;;;;;10.00;99.90;;;;;;4993960;28;23575;-62
2022/03/04 03:59:05;;;;;;;;;;;10.10;99.90;;;;;;4994183;28;20004;-63
2022/03/04 04:01:30;;;;;;;;;;;10.00;99.90;;;;;;4993377;28;19914;-62
2022/03/04 04:03:56;;;;;;;;;;;9.90;99.90;;;;;;4993509;28;19987;-62
2022/03/04 04:06:21;;;;;;;;;;;9.90;99.90;;;;;;4993797;28;20461;-61
2022/03/04 04:08:47;;;;;;;;;;;9.90;99.90;;;;;;4993539;28;19914;-61
2022/03/04 04:11:13;;;;;;;;;;;9.90;99.90;;;;;;4994431;28;19910;-61
2022/03/04 04:13:38;;;;;;;;;;;9.80;99.90;;;;;;4992829;28;19961;-61
2022/03/04 04:16:04;;;;;;;;;;;9.90;99.90;;;;;;4993296;28;19914;-62
2022/03/04 04:18:29;;;;;;;;;;;9.90;99.90;;;;;;4993652;28;19929;-61
2022/03/04 04:20:55;;;;;;;;;;;9.90;99.90;;;;;;4993697;28;19941;-62
2022/03/04 04:23:20;;;;;;;;;;;10.00;99.90;;;;;;4993452;28;20582;-63
2022/03/04 04:25:46;;;;;;;;;;;10.00;99.90;;;;;;4994008;28;19953;-62
2022/03/04 04:28:11;;;;;;;;;;;9.90;99.90;;;;;;4992372;28;20305;-61
2022/03/04 04:30:37;;;;;;;;;;;9.90;99.90;;;;;;4993140;28;19926;-63
2022/03/04 04:33:02;;;;;;;;;;;9.80;99.90;;;;;;4993583;28;19953;-63
2022/03/04 04:35:28;;;;;;;;;;;9.80;99.90;;;;;;4993215;28;19917;-63
2022/03/04 04:37:53;;;;;;;;;;;9.80;99.90;;;;;;4993764;28;20006;-62
2022/03/04 04:40:19;;;;;;;;;;;9.90;99.90;;;;;;4992967;28;19921;-62
2022/03/04 04:42:44;;;;;;;;;;;9.90;99.90;;;;;;4992805;28;20354;-62
2022/03/04 04:45:10;;;;;;;;;;;9.90;99.90;;;;;;4993040;28;19921;-62
2022/03/04 04:47:35;;;;;;;;;;;9.80;99.90;;;;;;4992650;28;20379;-63
2022/03/04 04:50:01;;;;;;;;;;;9.90;99.90;;;;;;4993279;28;19956;-61
2022/03/04 04:52:26;;;;;;;;;;;9.80;99.90;;;;;;4992652;28;19961;-62
2022/03/04 04:54:52;;;;;;;;;;;9.80;99.90;;;;;;4992480;28;19940;-62
2022/03/04 04:57:18;;;;;;;;;;;9.70;99.90;;;;;;4991966;28;19977;-60
2022/03/04 04:59:43;;;;;;;;;;;9.80;99.90;;;;;;5007085;28;19920;-60
2022/03/04 05:02:09;;;;;;;;;;;9.80;99.90;;;;;;4993715;28;19910;-61
2022/03/04 05:04:34;;;;;;;;;;;9.80;99.90;;;;;;4992037;28;19914;-61
2022/03/04 05:07:01;;;;;;;;;;;9.80;99.90;;;;;;4992958;28;19952;-61
2022/03/04 05:09:26;;;;;;;;;;;9.90;99.90;;;;;;4992367;28;19945;-60
2022/03/04 05:11:52;;;;;;;;;;;10.00;99.90;;;;;;4992341;28;19956;-61
2022/03/04 05:14:17;;;;;;;;;;;10.00;99.90;;;;;;4992877;28;19952;-62
2022/03/04 05:16:43;;;;;;;;;;;10.00;99.90;;;;;;4993303;28;20529;-60
2022/03/04 05:19:08;;;;;;;;;;;10.00;99.90;;;;;;4992207;28;20365;-61
2022/03/04 05:21:34;;;;;;;;;;;10.00;99.90;;;;;;4992224;28;19914;-60
2022/03/04 05:24:00;;;;;;;;;;;10.00;99.90;;;;;;4991924;28;19980;-63
2022/03/04 05:26:52;;;;;;;;;;;10.10;99.90;;;;;;4991879;28;20009;-62
2022/03/04 05:29:17;;;;;;;;;;;10.10;99.90;;;;;;4987860;28;19976;-63
2022/03/04 05:31:43;;;;;;;;;;;10.10;99.90;;;;;;4992449;28;20395;-62
2022/03/04 05:34:09;;;;;;;;;;;10.10;99.90;;;;;;4992197;28;19913;-62
2022/03/04 05:36:37;;;;;;;;;;;10.10;99.90;;;;;;5006199;28;20415;-62
2022/03/04 05:39:03;;;;;;;;;;;10.10;99.90;;;;;;4992004;28;19922;-64
2022/03/04 05:41:29;;;;;;;;;;;10.10;99.90;;;;;;4991680;28;20036;-62
2022/03/04 05:43:55;;;;;;;;;;;10.00;99.90;;;;;;4992956;28;19914;-60
2022/03/04 05:46:20;;;;;;;;;;;10.10;99.90;;;;;;4991734;28;19957;-62
2022/03/04 05:48:46;;;;;;;;;;;10.10;99.90;;;;;;4991289;28;20269;-63
2022/03/04 05:51:11;;;;;;;;;;;10.10;99.90;;;;;;4992135;28;19914;-61
2022/03/04 05:53:37;;;;;;;;;;;10.20;99.90;;;;;;4991742;28;20299;-63
2022/03/04 05:56:03;;;;;;;;;;;10.20;99.90;;;;;;4992032;28;19914;-62
2022/03/04 05:58:29;;;;;;;;;;;10.20;99.90;;;;;;4991396;28;20021;-63
2022/03/04 06:00:55;;;;;;;;;;;10.20;99.90;;;;;;4991303;28;19957;-62
2022/03/04 06:03:20;;;;;;;;;;;10.20;99.90;;;;;;4990979;28;19953;-60
2022/03/04 06:05:46;;;;;;;;;;;10.20;99.90;;;;;;4991123;28;19921;-62
2022/03/04 06:08:11;;;;;;;;;;;10.20;99.90;;;;;;4992107;28;19910;-61
2022/03/04 06:10:37;;;;;;;;;;;10.20;99.90;;;;;;4989865;28;19917;-62
2022/03/04 06:13:02;;;;;;;;;;;10.20;99.90;;;;;;4991404;28;19913;-61
2022/03/04 06:15:28;;;;;;;;;;;10.20;99.90;;;;;;4990826;28;20310;-61
2022/03/04 06:17:54;;;;;;;;;;;10.20;99.90;;;;;;4990876;28;20044;-63
2022/03/04 06:20:19;;;;;;;;;;;10.20;99.90;;;;;;4991334;28;20283;-62
2022/03/04 06:22:45;;;;;;;;;;;10.20;99.90;;;;;;4991002;28;19918;-62
2022/03/04 06:25:11;;;;;;;;;;;10.30;99.90;;;;;;4990479;28;19914;-63
2022/03/04 06:27:37;;;;;;;;;;;10.20;99.90;;;;;;4990668;28;19922;-64
2022/03/04 06:30:04;;;;;;;;;;;10.20;99.90;;;;;;4991137;28;20009;-64
2022/03/04 06:32:29;;;;;;;;;;;10.20;99.90;;;;;;4990582;28;19929;-65
2022/03/04 06:34:57;;;;;;;;;;;10.20;99.90;;;;;;4991171;28;19918;-64
2022/03/04 06:37:23;;;;;;;;;;;10.20;99.90;;;;;;4990133;28;20295;-63
2022/03/04 06:39:48;;;;;;;;;;;10.20;99.90;;;;;;4990154;28;19918;-64
2022/03/04 06:42:14;;;;;;;;;;;10.20;99.90;;;;;;4990812;28;19914;-64
2022/03/04 06:44:39;;;;;;;;;;;10.20;99.90;;;;;;4990686;28;19920;-64
2022/03/04 06:47:05;;;;;;;;;;;10.20;99.90;;;;;;4991471;28;20072;-64
2022/03/04 06:49:30;;;;;;;;;;;10.20;99.90;;;;;;4990332;28;19921;-65
2022/03/04 06:51:56;;;;;;;;;;;10.20;99.90;;;;;;4990248;28;20410;-64
2022/03/04 06:54:21;;;;;;;;;;;10.30;99.90;;;;;;4990434;28;19909;-63
2022/03/04 06:56:47;;;;;;;;;;;10.30;99.90;;;;;;4990855;28;19918;-64
2022/03/04 06:59:13;;;;;;;;;;;10.30;99.90;;;;;;4991051;28;19948;-64
2022/03/04 07:01:38;;;;;;;;;;;10.30;99.90;;;;;;4990122;28;19910;-65
2022/03/04 07:04:04;;;;;;;;;;;10.30;99.90;;;;;;4990256;28;19922;-65
2022/03/04 07:06:29;;;;;;;;;;;10.30;99.90;;;;;;4990326;28;19909;-63
2022/03/04 07:08:55;;;;;;;;;;;10.40;99.90;;;;;;4990285;28;19917;-65
2022/03/04 07:11:20;;;;;;;;;;;10.30;99.90;;;;;;4990425;28;19932;-64
2022/03/04 07:13:46;;;;;;;;;;;10.40;99.90;;;;;;4990740;28;19972;-65
2022/03/04 07:16:11;;;;;;;;;;;10.40;99.90;;;;;;4990758;28;20430;-65
2022/03/04 07:18:37;;;;;;;;;;;10.40;99.90;;;;;;4990110;28;20854;-64
2022/03/04 07:21:02;;;;;;;;;;;10.40;99.90;;;;;;4988932;28;19995;-64
2022/03/04 07:23:28;;;;;;;;;;;10.40;99.90;;;;;;4992205;28;19914;-64
2022/03/04 07:25:54;;;;;;;;;;;10.40;99.90;;;;;;4994386;28;19914;-65
2022/03/04 07:28:19;;;;;;;;;;;10.40;99.90;;;;;;4993730;28;19909;-64
2022/03/04 07:30:45;;;;;;;;;;;10.40;99.90;;;;;;4993858;28;20495;-65
2022/03/04 07:33:10;;;;;;;;;;;10.40;99.90;;;;;;4993923;28;20278;-64
2022/03/04 07:35:39;;;;;;;;;;;10.50;99.90;;;;;;4993484;28;19921;-64
2022/03/04 07:38:04;;;;;;;;;;;10.50;99.90;;;;;;4993932;28;20394;-64
2022/03/04 07:40:30;;;;;;;;;;;10.50;99.90;;;;;;4993868;28;19976;-65
2022/03/04 07:42:56;;;;;;;;;;;10.60;99.90;;;;;;4993775;28;19918;-65
2022/03/04 07:45:22;;;;;;;;;;;10.60;99.90;;;;;;4993520;28;20000;-65
2022/03/04 07:47:47;;;;;;;;;;;10.60;99.90;;;;;;4993818;28;20021;-65
2022/03/04 07:50:13;;;;;;;;;;;10.60;99.90;;;;;;4994251;28;20294;-66
2022/03/04 07:52:39;;;;;;;;;;;10.70;99.90;;;;;;4993229;28;20393;-66
2022/03/04 07:55:06;;;;;;;;;;;10.60;99.90;;;;;;4993352;28;19914;-64
2022/03/04 07:57:31;;;;;;;;;;;10.70;99.90;;;;;;4993169;28;19922;-64
2022/03/04 07:59:57;;;;;;;;;;;10.70;99.90;;;;;;4993159;28;20362;-63
2022/03/04 08:02:22;;;;;;;;;;;10.70;99.90;;;;;;4993556;28;19917;-64
2022/03/04 08:04:48;;;;;;;;;;;10.70;99.90;;;;;;4994165;28;19914;-64
2022/03/04 08:07:13;;;;;;;;;;;10.70;99.90;;;;;;4992859;28;19910;-63
2022/03/04 08:09:39;;;;;;;;;;;10.70;99.90;;;;;;4991645;28;19914;-65
2022/03/04 08:12:05;;;;;;;;;;;10.80;99.90;;;;;;4993141;28;19910;-64
2022/03/04 08:14:31;;;;;;;;;;;10.90;99.90;;;;;;4992933;28;19918;-64
2022/03/04 08:16:56;;;;;;;;;;;10.90;99.90;;;;;;4993690;28;19957;-65
2022/03/04 08:19:22;;;;;;;;;;;10.90;99.90;;;;;;4992582;28;19941;-65
2022/03/04 08:21:47;;;;;;;;;;;10.80;99.90;;;;;;4992783;28;19969;-64
2022/03/04 08:24:13;;;;;;;;;;;10.90;99.90;;;;;;4992445;28;19921;-63
2022/03/04 08:26:41;;;;;;;;;;;10.90;99.90;;;;;;4989649;28;19925;-61
2022/03/04 08:29:10;;;;;;;;;;;11.00;99.90;;;;;;4992402;28;19929;-63
2022/03/04 08:31:36;;;;;;;;;;;11.10;99.90;;;;;;4984860;28;19922;-61
2022/03/04 08:34:02;;;;;;;;;;;11.10;99.90;;;;;;4981379;28;19921;-61
2022/03/04 08:36:27;;;;;;;;;;;11.20;99.90;;;;;;4979287;28;19965;-59
2022/03/04 08:38:53;;;;;;;;;;;11.20;99.90;;;;;;4978683;28;20328;-58
2022/03/04 08:41:18;;;;;;;;;;;11.30;99.90;;;;;;4981291;28;19913;-64
2022/03/04 08:43:46;;;;;;;;;;;11.30;99.90;;;;;;4986291;28;19910;-62
2022/03/04 08:46:13;;;;;;;;;;;11.30;99.90;;;;;;4981961;28;19921;-63
2022/03/04 08:48:39;;;;;;;;;;;11.30;99.90;;;;;;4987315;28;19913;-64
2022/03/04 08:51:05;;;;;;;;;;;11.30;99.90;;;;;;4981981;28;20306;-64
2022/03/04 08:53:30;;;;;;;;;;;11.20;99.90;;;;;;4989783;28;20089;-62
2022/03/04 08:55:56;;;;;;;;;;;11.20;99.90;;;;;;4982352;28;19918;-63
2022/03/04 08:58:21;;;;;;;;;;;11.10;99.90;;;;;;4986837;28;19917;-64
2022/03/04 09:00:47;;;;;;;;;;;11.20;99.90;;;;;;4984837;28;19962;-64
2022/03/04 09:03:12;;;;;;;;;;;11.20;99.90;;;;;;4982980;28;20438;-65
2022/03/04 09:05:38;;;;;;;;;;;11.20;99.90;;;;;;4981067;28;19928;-64
2022/03/04 09:08:04;;;;;;;;;;;11.20;99.90;;;;;;4981622;28;19925;-64
2022/03/04 09:10:29;;;;;;;;;;;11.20;99.90;;;;;;4988700;28;20458;-63
2022/03/04 09:12:55;;;;;;;;;;;11.30;99.90;;;;;;4988010;28;19977;-64
2022/03/04 09:15:20;;;;;;;;;;;11.30;99.90;;;;;;4988109;28;19922;-65
2022/03/04 09:17:46;;;;;;;;;;;11.40;99.90;;;;;;4988022;28;19918;-64
2022/03/04 09:20:12;;;;;;;;;;;11.40;99.90;;;;;;4985894;28;19980;-65
2022/03/04 09:22:37;;;;;;;;;;;11.50;99.90;;;;;;4988045;28;20334;-65
2022/03/04 09:25:03;;;;;;;;;;;11.50;99.90;;;;;;4987603;28;19921;-65
2022/03/04 09:27:28;;;;;;;;;;;11.70;99.90;;;;;;4987465;28;19918;-65
2022/03/04 09:29:54;;;;;;;;;;;11.70;99.90;;;;;;4986737;28;20422;-63
2022/03/04 09:32:19;;;;;;;;;;;11.70;99.90;;;;;;4987648;28;20000;-64
2022/03/04 09:34:45;;;;;;;;;;;11.70;99.90;;;;;;4989661;28;19914;-63
2022/03/04 09:37:11;;;;;;;;;;;11.70;99.90;;;;;;4987318;28;21564;-62
2022/03/04 09:39:36;;;;;;;;;;;11.70;99.90;;;;;;4986172;28;20015;-65
2022/03/04 09:42:02;;;;;;;;;;;11.80;99.90;;;;;;4986979;28;19914;-64
2022/03/04 09:44:27;;;;;;;;;;;11.80;99.90;;;;;;4988057;28;19969;-66
2022/03/04 09:46:56;;;;;;;;;;;11.80;99.90;;;;;;4988600;28;20146;-65
2022/03/04 09:49:21;;;;;;;;;;;11.90;99.90;;;;;;4988539;28;19948;-62
2022/03/04 09:51:47;;;;;;;;;;;12.10;99.90;;;;;;4985737;28;19917;-64
2022/03/04 09:54:12;;;;;;;;;;;12.10;99.90;;;;;;4987208;28;19918;-64
2022/03/04 09:56:38;;;;;;;;;;;12.20;99.90;;;;;;4987380;28;19973;-62
2022/03/04 09:59:03;;;;;;;;;;;12.30;99.90;;;;;;4986013;28;19930;-65
2022/03/04 10:01:29;;;;;;;;;;;12.30;99.90;;;;;;4981925;28;19922;-63
2022/03/04 10:03:55;;;;;;;;;;;12.30;99.90;;;;;;4987447;28;19921;-63
2022/03/04 10:06:21;;;;;;;;;;;12.30;99.90;;;;;;4987213;28;19949;-63
2022/03/04 10:08:47;;;;;;;;;;;12.20;99.90;;;;;;4988047;28;20382;-65
2022/03/04 10:11:23;;;;;;;;;;;12.30;99.90;;;;;;4989412;28;19993;-64
2022/03/04 10:13:50;;;;;;;;;;;12.40;99.90;;;;;;4989264;28;20084;-60
2022/03/04 10:16:25;;;;;;;;;;;12.40;99.90;;;;;;4986757;28;19964;-64
2022/03/04 10:19:09;;;;;;;;;;;12.40;99.90;;;;;;4983593;28;20628;-62
2022/03/04 10:21:47;;;;;;;;;;;12.40;99.90;;;;;;4986259;28;20406;-65
2022/03/04 10:24:12;;;;;;;;;;;12.50;99.90;;;;;;4987124;28;19945;-63
2022/03/04 10:26:38;;;;;;;;;;;12.50;99.90;;;;;;4987966;28;20367;-64
2022/03/04 10:29:23;;;;;;;;;;;12.60;99.90;;;;;;4987998;28;20466;-63
2022/03/04 10:32:07;;;;;;;;;;;12.50;99.90;;;;;;4989013;28;19925;-64
2022/03/04 10:34:51;;;;;;;;;;;12.50;99.90;;;;;;4987062;28;19914;-63
2022/03/04 10:37:37;;;;;;;;;;;12.50;99.90;;;;;;4986806;28;19936;-63
2022/03/04 10:40:03;;;;;;;;;;;12.60;99.90;;;;;;4985019;28;19925;-64
2022/03/04 10:42:47;;;;;;;;;;;12.70;99.90;;;;;;4987370;28;20298;-64
2022/03/04 10:45:14;;;;;;;;;;;12.70;99.90;;;;;;4986168;28;19949;-64
2022/03/04 10:47:44;;;;;;;;;;;12.60;99.90;;;;;;4987310;28;20009;-63
2022/03/04 10:50:11;;;;;;;;;;;12.60;99.90;;;;;;4989495;28;19921;-62
2022/03/04 10:52:57;;;;;;;;;;;12.60;99.90;;;;;;4985368;28;20314;-62
2022/03/04 10:55:27;;;;;;;;;;;12.70;99.90;;;;;;4986638;28;19914;-64
2022/03/04 10:57:52;;;;;;;;;;;12.70;99.90;;;;;;4984097;28;19928;-63
2022/03/04 11:00:25;;;;;;;;;;;12.70;99.90;;;;;;4990946;28;19918;-63
2022/03/04 11:02:51;;;;;;;;;;;12.80;99.90;;;;;;4992246;28;19921;-62
2022/03/04 11:05:16;;;;;;;;;;;12.80;99.90;;;;;;4991910;28;19922;-64
2022/03/04 11:07:42;;;;;;;;;;;12.80;99.90;;;;;;4992242;28;19913;-62
2022/03/04 11:10:08;;;;;;;;;;;12.80;99.90;;;;;;4990609;28;20279;-62
2022/03/04 11:12:34;;;;;;;;;;;12.80;99.90;;;;;;4990430;28;19914;-63
2022/03/04 11:15:01;;;;;;;;;;;12.70;99.90;;;;;;4986896;28;20334;-62
2022/03/04 11:17:28;;;;;;;;;;;12.70;99.90;;;;;;4990498;28;19972;-61
2022/03/04 11:19:54;;;;;;;;;;;12.80;99.90;;;;;;4992950;28;19914;-64
2022/03/04 11:22:19;;;;;;;;;;;12.80;99.90;;;;;;4991077;28;19924;-64
2022/03/04 11:24:46;;;;;;;;;;;12.90;99.90;;;;;;4987944;28;19918;-63
2022/03/04 11:27:14;;;;;;;;;;;13.00;99.90;;;;;;4990402;28;19945;-65
2022/03/04 11:29:39;;;;;;;;;;;13.00;99.90;;;;;;4989775;28;19917;-61
2022/03/04 11:32:06;;;;;;;;;;;13.00;99.90;;;;;;4992668;28;19922;-63
2022/03/04 11:34:32;;;;;;;;;;;13.00;99.90;;;;;;4990788;28;19914;-64
2022/03/04 11:37:03;;;;;;;;;;;13.10;99.90;;;;;;4990577;28;20406;-61
2022/03/04 11:39:28;;;;;;;;;;;13.20;99.90;;;;;;4989068;28;19930;-63
2022/03/04 11:41:54;;;;;;;;;;;13.20;99.90;;;;;;4988166;28;19968;-63
2022/03/04 11:44:21;;;;;;;;;;;13.20;99.90;;;;;;4990489;28;19918;-63
2022/03/04 11:46:46;;;;;;;;;;;13.20;99.90;;;;;;4991226;28;19951;-63
2022/03/04 11:49:27;;;;;;;;;;;13.30;99.90;;;;;;4989748;28;20407;-64
2022/03/04 11:52:15;;;;;;;;;;;13.30;99.90;;;;;;4986406;28;19921;-62
2022/03/04 11:54:41;;;;;;;;;;;13.20;99.90;;;;;;4989840;28;19957;-62
2022/03/04 11:57:20;;;;;;;;;;;13.30;99.90;;;;;;4989401;28;19945;-61
2022/03/04 11:59:49;;;;;;;;;;;13.40;99.90;;;;;;4989805;28;19924;-63
2022/03/04 12:02:18;;;;;;;;;;;13.50;99.90;;;;;;4991786;28;19929;-61
2022/03/04 12:04:44;;;;;;;;;;;13.50;99.90;;;;;;4991422;28;20270;-61
2022/03/04 12:07:10;;;;;;;;;;;13.50;99.90;;;;;;4990126;28;19921;-63
2022/03/04 12:09:35;;;;;;;;;;;13.40;99.90;;;;;;4989406;28;19918;-63
2022/03/04 12:12:08;;;;;;;;;;;13.40;99.90;;;;;;4989562;28;19917;-61
2022/03/04 12:14:34;;;;;;;;;;;13.50;99.90;;;;;;4988109;28;20430;-61
2022/03/04 12:17:00;;;;;;;;;;;13.50;99.90;;;;;;4992044;28;19917;-62
2022/03/04 12:19:35;;;;;;;;;;;13.60;99.90;;;;;;4988652;28;19928;-65
2022/03/04 12:22:00;;;;;;;;;;;13.70;99.90;;;;;;4989734;28;20382;-63
2022/03/04 12:24:30;;;;;;;;;;;13.60;99.90;;;;;;4990109;28;19914;-65
2022/03/04 12:26:56;;;;;;;;;;;13.50;99.90;;;;;;4989143;28;19918;-62
2022/03/04 12:29:24;;;;;;;;;;;13.40;99.90;;;;;;4989209;28;19921;-63
2022/03/04 12:31:50;;;;;;;;;;;13.30;99.90;;;;;;4990814;28;19933;-64
2022/03/04 12:34:20;;;;;;;;;;;13.30;99.90;;;;;;4989229;28;19918;-63
2022/03/04 12:36:46;;;;;;;;;;;13.30;99.90;;;;;;4989064;28;19996;-62
2022/03/04 12:39:15;;;;;;;;;;;13.40;99.90;;;;;;4986200;28;20518;-63
2022/03/04 12:41:41;;;;;;;;;;;13.50;99.90;;;;;;4988460;28;19922;-62
2022/03/04 12:44:08;;;;;;;;;;;13.60;99.90;;;;;;4990978;28;19921;-63
2022/03/04 12:46:37;;;;;;;;;;;13.60;99.90;;;;;;4988649;28;19913;-63
2022/03/04 12:49:04;;;;;;;;;;;13.50;99.90;;;;;;4985993;28;19918;-65
2022/03/04 12:51:31;;;;;;;;;;;13.40;99.90;;;;;;4987608;28;19917;-65
2022/03/04 12:53:58;;;;;;;;;;;13.50;99.90;;;;;;4988200;28;19913;-65
2022/03/04 12:56:23;;;;;;;;;;;13.50;99.90;;;;;;4988859;28;20001;-63
2022/03/04 12:58:50;;;;;;;;;;;13.40;99.90;;;;;;4990342;28;20389;-63
2022/03/04 13:01:17;;;;;;;;;;;13.40;99.90;;;;;;4988603;28;19921;-63
2022/03/04 13:03:47;;;;;;;;;;;13.30;99.90;;;;;;4989195;28;20008;-63
2022/03/04 13:06:12;;;;;;;;;;;13.30;99.90;;;;;;4988303;28;20001;-64
2022/03/04 13:08:49;;;;;;;;;;;13.40;99.90;;;;;;4988248;28;20064;-63
2022/03/04 13:11:15;;;;;;;;;;;13.50;99.90;;;;;;4989662;28;19929;-63
2022/03/04 13:13:49;;;;;;;;;;;13.40;99.90;;;;;;4988063;28;20386;-64
2022/03/04 13:16:25;;;;;;;;;;;13.30;99.90;;;;;;4988189;28;19921;-61
2022/03/04 13:18:52;;;;;;;;;;;13.40;99.90;;;;;;4986904;28;20076;-63
2022/03/04 13:21:17;;;;;;;;;;;13.30;99.90;;;;;;4987160;28;19917;-62
2022/03/04 13:23:52;;;;;;;;;;;13.30;99.90;;;;;;4988525;28;19937;-62
2022/03/04 13:26:22;;;;;;;;;;;13.30;99.90;;;;;;4990196;28;19917;-64
2022/03/04 13:28:50;;;;;;;;;;;13.30;99.90;;;;;;4987611;28;19923;-62
2022/03/04 13:31:29;;;;;;;;;;;13.30;99.90;;;;;;4987440;28;20374;-62
2022/03/04 13:33:59;;;;;;;;;;;13.30;99.90;;;;;;4982352;28;19925;-63
2022/03/04 13:36:42;;;;;;;;;;;13.30;99.90;;;;;;4985688;28;20044;-60
2022/03/04 13:39:11;;;;;;;;;;;13.30;99.90;;;;;;4984777;28;20501;-63
2022/03/04 13:41:37;;;;;;;;;;;13.20;99.90;;;;;;4986734;28;19925;-62
2022/03/04 13:44:07;;;;;;;;;;;13.10;99.90;;;;;;4988657;28;19926;-62
2022/03/04 13:46:32;;;;;;;;;;;13.20;99.90;;;;;;4985469;28;19925;-61
2022/03/04 13:49:04;;;;;;;;;;;13.20;99.90;;;;;;4985681;28;19926;-62
2022/03/04 13:51:29;;;;;;;;;;;13.20;99.90;;;;;;4986662;28;19922;-62
2022/03/04 13:53:56;;;;;;;;;;;13.10;99.90;;;;;;4985824;28;19914;-61
2022/03/04 13:56:22;;;;;;;;;;;13.20;99.90;;;;;;4988044;28;20008;-63
2022/03/04 13:58:56;;;;;;;;;;;13.20;99.90;;;;;;4990401;28;20637;-63
2022/03/04 14:01:21;;;;;;;;;;;13.20;99.90;;;;;;4988292;28;19933;-63
2022/03/04 14:03:47;;;;;;;;;;;13.20;99.90;;;;;;4986619;28;19921;-62
2022/03/04 14:06:13;;;;;;;;;;;13.20;99.90;;;;;;4976063;28;20008;-61
2022/03/04 14:08:39;;;;;;;;;;;13.20;99.90;;;;;;4987505;28;19928;-61
2022/03/04 14:11:06;;;;;;;;;;;13.20;99.90;;;;;;4992086;28;20410;-63
2022/03/04 14:13:31;;;;;;;;;;;13.20;99.90;;;;;;4988194;28;20442;-62
2022/03/04 14:15:58;;;;;;;;;;;13.20;99.90;;;;;;4988392;28;19968;-63